Time;durP1;ratioP1;P1;durP2;ratioP2;P2;SDS_P1;SDS_P2;PMS_P1;PMS_P2;Temp;Humidity;BMP_temperature;BMP_pressure;BME280_temperature;BME280_humidity;BME280_pressure;Samples;Min_cycle;Max_cycle;Signal;HPM_P1;HPM_P2
2021/05/21 00:00:33;;;;;;;;;;;14.00;84.90;;;;;;5088355;28;19947;-85
2021/05/21 00:03:01;;;;;;;;;;;14.00;85.60;;;;;;5089657;28;19912;-85
2021/05/21 00:05:26;;;;;;;;;;;14.00;85.20;;;;;;5073854;28;19999;-85
2021/05/21 00:07:52;;;;;;;;;;;14.00;85.40;;;;;;5089494;28;19948;-85
2021/05/21 00:10:17;;;;;;;;;;;14.00;85.20;;;;;;5074574;28;19995;-85
2021/05/21 00:12:43;;;;;;;;;;;14.00;85.50;;;;;;5093741;28;19909;-84
2021/05/21 00:15:09;;;;;;;;;;;14.00;85.40;;;;;;5076657;28;19915;-85
2021/05/21 00:17:35;;;;;;;;;;;14.00;85.60;;;;;;5093907;28;19975;-85
2021/05/21 00:20:00;;;;;;;;;;;14.00;85.50;;;;;;5093547;28;20011;-84
2021/05/21 00:22:26;;;;;;;;;;;14.00;85.40;;;;;;5094055;28;19954;-85
2021/05/21 00:24:51;;;;;;;;;;;14.00;85.70;;;;;;5079256;28;19908;-86
2021/05/21 00:27:17;;;;;;;;;;;13.90;85.60;;;;;;5078886;28;19916;-85
2021/05/21 00:29:43;;;;;;;;;;;13.90;85.80;;;;;;5093889;28;20296;-85
2021/05/21 00:32:09;;;;;;;;;;;14.00;85.70;;;;;;5094571;28;19915;-85
2021/05/21 00:34:34;;;;;;;;;;;13.90;86.60;;;;;;5093516;28;19908;-85
2021/05/21 00:37:00;;;;;;;;;;;13.90;86.10;;;;;;5076888;28;19916;-85
2021/05/21 00:39:25;;;;;;;;;;;13.90;86.10;;;;;;5076373;28;19934;-85
2021/05/21 00:41:51;;;;;;;;;;;13.90;86.20;;;;;;5076671;28;19908;-85
2021/05/21 00:44:16;;;;;;;;;;;13.90;86.20;;;;;;5076756;28;19916;-85
2021/05/21 00:46:42;;;;;;;;;;;13.90;86.40;;;;;;5077077;28;19916;-85
2021/05/21 00:49:08;;;;;;;;;;;13.90;86.60;;;;;;5076669;28;19912;-85
2021/05/21 00:51:33;;;;;;;;;;;13.90;86.80;;;;;;5092896;28;20347;-85
2021/05/21 00:53:59;;;;;;;;;;;13.80;86.70;;;;;;5092094;28;19908;-85
2021/05/21 00:56:26;;;;;;;;;;;13.80;86.70;;;;;;5076890;28;19965;-85
2021/05/21 00:58:52;;;;;;;;;;;13.80;86.90;;;;;;5076398;28;19956;-85
2021/05/21 01:01:17;;;;;;;;;;;13.80;87.00;;;;;;5076263;28;19916;-85
2021/05/21 01:03:43;;;;;;;;;;;13.80;87.00;;;;;;5092088;28;19908;-85
2021/05/21 01:06:10;;;;;;;;;;;13.80;87.20;;;;;;5093508;28;20288;-85
2021/05/21 01:08:36;;;;;;;;;;;13.70;87.20;;;;;;5093191;28;19916;-85
2021/05/21 01:11:02;;;;;;;;;;;13.70;87.40;;;;;;5076132;28;19909;-85
2021/05/21 01:13:27;;;;;;;;;;;13.70;87.60;;;;;;5091908;28;19909;-85
2021/05/21 01:15:53;;;;;;;;;;;13.70;87.70;;;;;;5091592;28;19912;-85
2021/05/21 01:18:18;;;;;;;;;;;13.70;87.70;;;;;;5075791;28;19915;-86
2021/05/21 01:20:44;;;;;;;;;;;13.70;87.80;;;;;;5090812;28;19960;-85
2021/05/21 01:23:09;;;;;;;;;;;13.70;88.10;;;;;;5090698;28;19912;-85
2021/05/21 01:25:35;;;;;;;;;;;13.70;88.10;;;;;;5091240;28;19913;-85
2021/05/21 01:28:02;;;;;;;;;;;13.70;88.40;;;;;;5076315;28;19908;-85
2021/05/21 01:30:27;;;;;;;;;;;13.70;88.40;;;;;;5091486;28;20297;-85
2021/05/21 01:32:53;;;;;;;;;;;13.70;88.50;;;;;;5076653;28;19916;-85
2021/05/21 01:35:19;;;;;;;;;;;13.70;88.70;;;;;;5092252;28;19954;-85
2021/05/21 01:37:45;;;;;;;;;;;13.70;88.80;;;;;;5076944;28;20411;-85
2021/05/21 01:40:12;;;;;;;;;;;13.60;88.80;;;;;;5075662;28;19952;-85
2021/05/21 01:42:37;;;;;;;;;;;13.60;89.10;;;;;;5091821;28;20387;-86
2021/05/21 01:45:03;;;;;;;;;;;13.60;89.00;;;;;;5076468;28;19995;-85
2021/05/21 01:47:29;;;;;;;;;;;13.60;89.80;;;;;;5078627;28;19913;-85
2021/05/21 01:49:55;;;;;;;;;;;13.60;89.10;;;;;;5078024;28;19920;-85
2021/05/21 01:52:20;;;;;;;;;;;13.60;88.90;;;;;;5079859;28;19912;-86
2021/05/21 01:54:46;;;;;;;;;;;13.60;89.00;;;;;;5093419;28;19908;-85
2021/05/21 01:57:11;;;;;;;;;;;13.60;89.10;;;;;;5091635;28;20273;-84
2021/05/21 01:59:37;;;;;;;;;;;13.60;89.30;;;;;;5090833;28;19916;-85
2021/05/21 02:02:03;;;;;;;;;;;13.60;89.50;;;;;;5075734;28;20336;-85
2021/05/21 02:04:30;;;;;;;;;;;13.60;89.20;;;;;;5091011;28;19908;-85
2021/05/21 02:06:55;;;;;;;;;;;13.60;89.20;;;;;;5074431;28;19954;-85
2021/05/21 02:09:21;;;;;;;;;;;13.60;89.10;;;;;;5090026;28;19908;-84
2021/05/21 02:11:46;;;;;;;;;;;13.60;89.10;;;;;;5075793;28;20007;-85
2021/05/21 02:14:12;;;;;;;;;;;13.60;89.10;;;;;;5091254;28;19915;-85
2021/05/21 02:16:37;;;;;;;;;;;13.60;89.10;;;;;;5076457;28;19954;-86
2021/05/21 02:19:03;;;;;;;;;;;13.60;89.00;;;;;;5082197;28;19909;-85
2021/05/21 02:21:32;;;;;;;;;;;13.60;89.20;;;;;;5079395;28;19909;-85
2021/05/21 02:24:04;;;;;;;;;;;13.70;89.20;;;;;;5085282;28;19908;-85
2021/05/21 02:26:30;;;;;;;;;;;13.60;89.20;;;;;;5099536;28;19963;-85
2021/05/21 02:28:55;;;;;;;;;;;13.60;89.40;;;;;;5098412;28;19908;-85
2021/05/21 02:31:21;;;;;;;;;;;13.60;89.60;;;;;;5097608;28;20256;-85
2021/05/21 02:33:47;;;;;;;;;;;13.60;89.40;;;;;;5074183;28;19915;-85
2021/05/21 02:36:12;;;;;;;;;;;13.60;89.30;;;;;;5089820;28;19912;-85
2021/05/21 02:38:38;;;;;;;;;;;13.60;89.50;;;;;;5089903;28;19931;-85
2021/05/21 02:41:03;;;;;;;;;;;13.60;89.50;;;;;;5089447;28;19916;-85
2021/05/21 02:43:29;;;;;;;;;;;13.60;90.00;;;;;;5074684;28;19931;-84
2021/05/21 02:45:54;;;;;;;;;;;13.60;89.50;;;;;;5074650;28;19935;-85
2021/05/21 02:48:20;;;;;;;;;;;13.60;89.70;;;;;;5090311;28;19920;-85
2021/05/21 02:50:45;;;;;;;;;;;13.60;89.80;;;;;;5074150;28;19908;-85
2021/05/21 02:53:11;;;;;;;;;;;13.60;89.90;;;;;;5074449;28;20292;-85
2021/05/21 02:55:36;;;;;;;;;;;13.60;89.90;;;;;;5073756;28;19913;-85
2021/05/21 02:58:03;;;;;;;;;;;13.60;89.90;;;;;;5073593;28;19944;-85
2021/05/21 03:00:29;;;;;;;;;;;13.60;89.90;;;;;;5089171;28;19916;-85
2021/05/21 03:02:54;;;;;;;;;;;13.60;90.00;;;;;;5089329;28;19913;-85
2021/05/21 03:05:22;;;;;;;;;;;13.50;90.00;;;;;;5089199;28;19962;-85
2021/05/21 03:07:53;;;;;;;;;;;13.60;90.10;;;;;;5089444;28;19909;-85
2021/05/21 03:10:19;;;;;;;;;;;13.60;90.10;;;;;;5088525;28;19916;-85
2021/05/21 03:12:44;;;;;;;;;;;13.50;90.10;;;;;;5089314;28;19908;-85
2021/05/21 03:15:10;;;;;;;;;;;13.50;90.10;;;;;;5089405;28;19919;-84
2021/05/21 03:17:35;;;;;;;;;;;13.50;90.10;;;;;;5088912;28;19968;-84
2021/05/21 03:20:01;;;;;;;;;;;13.50;90.10;;;;;;5073147;28;19909;-85
2021/05/21 03:22:26;;;;;;;;;;;13.50;90.10;;;;;;5089192;28;19909;-85
2021/05/21 03:24:52;;;;;;;;;;;13.50;90.10;;;;;;5089071;28;19908;-85
2021/05/21 03:27:18;;;;;;;;;;;13.50;90.20;;;;;;5089358;28;19908;-85
2021/05/21 03:29:43;;;;;;;;;;;13.40;90.10;;;;;;5072917;28;19961;-85
2021/05/21 03:32:11;;;;;;;;;;;13.40;90.50;;;;;;5089158;28;20292;-85
2021/05/21 03:34:36;;;;;;;;;;;13.40;90.20;;;;;;5089117;28;20250;-85
2021/05/21 03:37:02;;;;;;;;;;;13.40;90.20;;;;;;5088885;28;19934;-85
2021/05/21 03:39:27;;;;;;;;;;;13.40;90.20;;;;;;5088227;28;19917;-85
2021/05/21 03:41:53;;;;;;;;;;;13.40;90.20;;;;;;5073561;28;19908;-85
2021/05/21 03:44:18;;;;;;;;;;;13.40;90.20;;;;;;5088492;28;19924;-84
2021/05/21 03:46:44;;;;;;;;;;;13.40;90.30;;;;;;5088998;28;19963;-85
2021/05/21 03:49:12;;;;;;;;;;;13.40;90.20;;;;;;5073123;28;19923;-85
2021/05/21 03:51:37;;;;;;;;;;;13.40;90.20;;;;;;5088938;28;20323;-86
2021/05/21 03:54:03;;;;;;;;;;;13.40;90.20;;;;;;5073821;28;19909;-86
2021/05/21 03:56:29;;;;;;;;;;;13.40;90.30;;;;;;5089474;28;19920;-85
2021/05/21 03:58:56;;;;;;;;;;;13.40;90.30;;;;;;5088876;28;20348;-85
2021/05/21 04:01:22;;;;;;;;;;;13.40;90.20;;;;;;5073666;28;20278;-85
2021/05/21 04:03:47;;;;;;;;;;;13.40;90.20;;;;;;5074018;28;20361;-85
2021/05/21 04:06:13;;;;;;;;;;;13.40;90.10;;;;;;5090196;28;19961;-85
2021/05/21 04:08:39;;;;;;;;;;;13.40;90.20;;;;;;5090325;28;19909;-85
2021/05/21 04:11:04;;;;;;;;;;;13.40;90.20;;;;;;5090073;28;20054;-85
2021/05/21 04:13:30;;;;;;;;;;;13.40;90.10;;;;;;5075044;28;20058;-85
2021/05/21 04:15:55;;;;;;;;;;;13.40;90.10;;;;;;5089954;28;20361;-85
2021/05/21 04:18:21;;;;;;;;;;;13.40;90.00;;;;;;5074483;28;19912;-85
2021/05/21 04:20:46;;;;;;;;;;;13.40;90.10;;;;;;5074514;28;19915;-85
2021/05/21 04:23:12;;;;;;;;;;;13.40;90.00;;;;;;5075115;28;19909;-85
2021/05/21 04:25:37;;;;;;;;;;;13.40;90.00;;;;;;5075258;28;19908;-85
2021/05/21 04:28:03;;;;;;;;;;;13.40;90.20;;;;;;5075626;28;19912;-85
2021/05/21 04:30:32;;;;;;;;;;;13.40;89.90;;;;;;5090134;28;19909;-85
2021/05/21 04:32:57;;;;;;;;;;;13.40;90.10;;;;;;5091044;28;20285;-85
2021/05/21 04:35:23;;;;;;;;;;;13.40;90.30;;;;;;5075827;28;19908;-85
2021/05/21 04:37:51;;;;;;;;;;;13.40;90.20;;;;;;5091878;28;19909;-85
2021/05/21 04:40:17;;;;;;;;;;;13.40;90.10;;;;;;5071919;28;19920;-85
2021/05/21 04:42:43;;;;;;;;;;;13.40;90.10;;;;;;5092263;28;19916;-84
2021/05/21 04:45:09;;;;;;;;;;;13.50;90.20;;;;;;5077564;28;20397;-85
2021/05/21 04:47:35;;;;;;;;;;;13.40;90.20;;;;;;5094327;28;20014;-85
2021/05/21 04:50:00;;;;;;;;;;;13.50;90.30;;;;;;5092713;28;19913;-85
2021/05/21 04:52:26;;;;;;;;;;;13.50;90.20;;;;;;5074631;28;19909;-84
2021/05/21 04:54:51;;;;;;;;;;;13.50;90.30;;;;;;5075211;28;20018;-84
2021/05/21 04:57:17;;;;;;;;;;;13.50;90.30;;;;;;5078066;28;20254;-84
2021/05/21 04:59:42;;;;;;;;;;;13.50;90.40;;;;;;5078176;28;19917;-85
2021/05/21 05:02:08;;;;;;;;;;;13.50;90.40;;;;;;5077852;28;19916;-85
2021/05/21 05:04:34;;;;;;;;;;;13.50;90.40;;;;;;5093524;28;20285;-85
2021/05/21 05:06:59;;;;;;;;;;;13.50;90.30;;;;;;5093384;28;19919;-85
2021/05/21 05:09:25;;;;;;;;;;;13.50;90.40;;;;;;5092772;28;20357;-85
2021/05/21 05:11:50;;;;;;;;;;;13.50;90.20;;;;;;5077742;28;20373;-85
2021/05/21 05:14:16;;;;;;;;;;;13.50;90.40;;;;;;5093462;28;19995;-85
2021/05/21 05:16:42;;;;;;;;;;;13.50;90.40;;;;;;5092467;28;19920;-85
2021/05/21 05:19:07;;;;;;;;;;;13.50;90.50;;;;;;5076720;28;19916;-85
2021/05/21 05:21:34;;;;;;;;;;;13.60;90.50;;;;;;5092791;28;19939;-86
2021/05/21 05:24:01;;;;;;;;;;;13.50;90.40;;;;;;5091760;28;19915;-84
2021/05/21 05:26:27;;;;;;;;;;;13.50;90.40;;;;;;5091531;28;19912;-84
2021/05/21 05:28:53;;;;;;;;;;;13.60;90.60;;;;;;5076361;28;19909;-85
2021/05/21 05:31:19;;;;;;;;;;;13.50;90.60;;;;;;5093022;28;20276;-85
2021/05/21 05:33:45;;;;;;;;;;;13.50;90.80;;;;;;5077348;28;20350;-85
2021/05/21 05:36:11;;;;;;;;;;;13.50;90.60;;;;;;5076993;28;20347;-84
2021/05/21 05:38:37;;;;;;;;;;;13.50;90.60;;;;;;5091940;28;19908;-84
2021/05/21 05:41:02;;;;;;;;;;;13.50;90.60;;;;;;5099362;22;19924;-82
2021/05/21 05:43:28;;;;;;;;;;;13.50;90.60;;;;;;5077111;28;19966;-82
2021/05/21 05:45:53;;;;;;;;;;;13.50;90.70;;;;;;5078036;28;19917;-82
2021/05/21 05:48:19;;;;;;;;;;;13.50;90.70;;;;;;5076565;28;19916;-83
2021/05/21 05:50:46;;;;;;;;;;;13.50;90.80;;;;;;5076361;28;19943;-84
2021/05/21 05:53:11;;;;;;;;;;;13.50;90.70;;;;;;5076593;28;19974;-82
2021/05/21 05:55:37;;;;;;;;;;;13.50;90.70;;;;;;5076382;28;20361;-85
2021/05/21 05:58:02;;;;;;;;;;;13.50;90.80;;;;;;5077888;28;20277;-82
2021/05/21 06:00:28;;;;;;;;;;;13.50;90.90;;;;;;5075763;28;19958;-83
2021/05/21 06:02:53;;;;;;;;;;;13.50;90.80;;;;;;5077569;28;20388;-82
2021/05/21 06:05:19;;;;;;;;;;;13.50;90.90;;;;;;5076654;28;19909;-82
2021/05/21 06:07:44;;;;;;;;;;;13.60;91.00;;;;;;5075700;28;19908;-82
2021/05/21 06:10:10;;;;;;;;;;;13.60;90.90;;;;;;5077473;28;19908;-82
2021/05/21 06:12:36;;;;;;;;;;;13.60;91.00;;;;;;5075886;28;19970;-82
2021/05/21 06:15:01;;;;;;;;;;;13.60;91.00;;;;;;5077186;28;19962;-83
2021/05/21 06:17:27;;;;;;;;;;;13.60;91.10;;;;;;5077082;28;19913;-82
2021/05/21 06:19:53;;;;;;;;;;;13.60;91.00;;;;;;5076744;28;20011;-83
2021/05/21 06:22:18;;;;;;;;;;;13.60;91.10;;;;;;5077839;28;19908;-82
2021/05/21 06:24:46;;;;;;;;;;;13.70;91.20;;;;;;5075981;28;20011;-84
2021/05/21 06:27:29;;;;;;;;;;;13.70;91.10;;;;;;5077562;28;19962;-82
2021/05/21 06:29:54;;;;;;;;;;;13.70;91.10;;;;;;5077137;28;19951;-83
2021/05/21 06:32:20;;;;;;;;;;;13.70;91.20;;;;;;5076935;28;20296;-85
2021/05/21 06:34:45;;;;;;;;;;;13.70;90.90;;;;;;5076185;28;20415;-83
2021/05/21 06:37:11;;;;;;;;;;;13.70;90.60;;;;;;5076037;28;19912;-83
2021/05/21 06:39:36;;;;;;;;;;;13.70;90.70;;;;;;5074870;28;20379;-82
2021/05/21 06:42:02;;;;;;;;;;;13.70;90.70;;;;;;5075800;28;19908;-84
2021/05/21 06:44:28;;;;;;;;;;;13.70;91.00;;;;;;5072644;28;19944;-85
2021/05/21 06:46:57;;;;;;;;;;;13.70;90.70;;;;;;5072470;28;19915;-84
2021/05/21 06:49:23;;;;;;;;;;;13.80;90.50;;;;;;5072299;28;19909;-85
2021/05/21 06:51:49;;;;;;;;;;;13.80;90.50;;;;;;5073367;28;19908;-84
2021/05/21 06:54:14;;;;;;;;;;;13.80;90.40;;;;;;5072552;28;19908;-84
2021/05/21 06:56:40;;;;;;;;;;;13.80;90.20;;;;;;5071773;28;20086;-85
2021/05/21 06:59:05;;;;;;;;;;;13.80;90.90;;;;;;5072745;28;19916;-84
2021/05/21 07:01:31;;;;;;;;;;;13.80;90.70;;;;;;5073122;28;19909;-84
2021/05/21 07:03:57;;;;;;;;;;;13.80;90.20;;;;;;5071841;28;20446;-84
2021/05/21 07:06:23;;;;;;;;;;;13.80;90.50;;;;;;5071868;28;19915;-84
2021/05/21 07:08:49;;;;;;;;;;;13.80;90.50;;;;;;5072388;28;19908;-84
2021/05/21 07:11:16;;;;;;;;;;;13.80;90.40;;;;;;5073300;28;19919;-84
2021/05/21 07:13:41;;;;;;;;;;;13.90;90.10;;;;;;5073208;28;20339;-84
2021/05/21 07:16:07;;;;;;;;;;;13.90;89.90;;;;;;5071737;28;19913;-84
2021/05/21 07:18:32;;;;;;;;;;;14.00;90.00;;;;;;5071447;28;19909;-83
2021/05/21 07:21:02;;;;;;;;;;;14.00;89.10;;;;;;5071708;28;19912;-84
2021/05/21 07:23:27;;;;;;;;;;;14.00;89.40;;;;;;5071702;28;19915;-84
2021/05/21 07:25:53;;;;;;;;;;;14.10;89.10;;;;;;5071776;28;19909;-84
2021/05/21 07:28:19;;;;;;;;;;;14.10;88.20;;;;;;5071813;28;20338;-85
2021/05/21 07:30:45;;;;;;;;;;;14.00;88.20;;;;;;5071021;28;19945;-85
2021/05/21 07:33:11;;;;;;;;;;;14.00;87.80;;;;;;5071611;28;19939;-85
2021/05/21 07:35:36;;;;;;;;;;;14.00;87.30;;;;;;5072836;28;20372;-85
2021/05/21 07:38:02;;;;;;;;;;;14.00;88.00;;;;;;5071434;28;19913;-85
2021/05/21 07:40:28;;;;;;;;;;;14.00;87.10;;;;;;5070870;28;19923;-85
2021/05/21 07:42:53;;;;;;;;;;;14.00;85.80;;;;;;5071646;28;19908;-84
2021/05/21 07:45:19;;;;;;;;;;;14.00;86.20;;;;;;5072933;28;20381;-85
2021/05/21 07:47:45;;;;;;;;;;;14.10;85.20;;;;;;5071755;28;20403;-85
2021/05/21 07:50:10;;;;;;;;;;;14.10;85.10;;;;;;5071928;28;19994;-83
2021/05/21 07:52:36;;;;;;;;;;;14.10;83.40;;;;;;5075771;28;19912;-83
2021/05/21 07:55:05;;;;;;;;;;;14.10;83.70;;;;;;5077446;28;19908;-85
2021/05/21 07:57:31;;;;;;;;;;;14.10;83.80;;;;;;5076089;28;20273;-82
2021/05/21 07:59:56;;;;;;;;;;;14.20;83.10;;;;;;5077497;28;19912;-83
2021/05/21 08:02:22;;;;;;;;;;;14.10;83.70;;;;;;5075962;28;19909;-85
2021/05/21 08:04:47;;;;;;;;;;;14.20;84.40;;;;;;5077622;28;19935;-83
2021/05/21 08:07:13;;;;;;;;;;;14.30;84.70;;;;;;5077862;28;19909;-84
2021/05/21 08:09:40;;;;;;;;;;;14.30;83.30;;;;;;5077244;28;19995;-84
2021/05/21 08:12:06;;;;;;;;;;;14.30;83.10;;;;;;5077826;28;19935;-83
2021/05/21 08:14:32;;;;;;;;;;;14.20;81.90;;;;;;5078069;28;19996;-84
2021/05/21 08:16:57;;;;;;;;;;;14.20;81.80;;;;;;5077662;28;19959;-82
2021/05/21 08:19:23;;;;;;;;;;;14.30;81.00;;;;;;5077920;28;19908;-83
2021/05/21 08:21:49;;;;;;;;;;;14.30;81.50;;;;;;5076403;28;19909;-85
2021/05/21 08:24:14;;;;;;;;;;;14.30;82.20;;;;;;5075790;28;20393;-84
2021/05/21 08:26:40;;;;;;;;;;;14.30;81.20;;;;;;5075792;28;20341;-83
2021/05/21 08:29:05;;;;;;;;;;;14.40;80.80;;;;;;5073728;28;19959;-84
2021/05/21 08:31:31;;;;;;;;;;;14.50;78.60;;;;;;5072497;28;19958;-85
2021/05/21 08:33:59;;;;;;;;;;;14.40;78.40;;;;;;5074829;28;19916;-83
2021/05/21 08:36:25;;;;;;;;;;;14.30;78.60;;;;;;5075302;28;19935;-85
2021/05/21 08:38:52;;;;;;;;;;;14.30;79.40;;;;;;5079535;28;20365;-83
2021/05/21 08:41:20;;;;;;;;;;;14.30;79.50;;;;;;5080182;28;20376;-84
2021/05/21 08:43:47;;;;;;;;;;;14.40;79.50;;;;;;5079107;28;19913;-83
2021/05/21 08:46:13;;;;;;;;;;;14.50;76.40;;;;;;5079766;28;19909;-84
2021/05/21 08:48:40;;;;;;;;;;;14.60;74.90;;;;;;5079740;28;19909;-85
2021/05/21 08:51:06;;;;;;;;;;;14.80;73.60;;;;;;5081235;28;20047;-82
2021/05/21 08:53:32;;;;;;;;;;;14.80;73.50;;;;;;5082013;28;19908;-85
2021/05/21 08:55:59;;;;;;;;;;;14.80;72.60;;;;;;5076494;28;20368;-83
2021/05/21 08:58:25;;;;;;;;;;;14.70;72.90;;;;;;5074387;28;19908;-84
2021/05/21 09:00:50;;;;;;;;;;;14.70;72.80;;;;;;5078460;28;20000;-84
2021/05/21 09:03:23;;;;;;;;;;;14.70;73.30;;;;;;5079874;28;19934;-84
2021/05/21 09:06:12;;;;;;;;;;;14.70;73.30;;;;;;5080203;28;20389;-84
2021/05/21 09:08:44;;;;;;;;;;;14.60;68.30;;;;;;5079454;28;19931;-84
2021/05/21 09:11:26;;;;;;;;;;;14.60;69.90;;;;;;5080667;28;20007;-85
2021/05/21 09:13:56;;;;;;;;;;;14.60;68.80;;;;;;5080097;28;19912;-83
2021/05/21 09:16:22;;;;;;;;;;;14.60;70.60;;;;;;5074814;28;19959;-85
2021/05/21 09:18:58;;;;;;;;;;;14.70;69.30;;;;;;5075090;28;19909;-82
2021/05/21 09:21:24;;;;;;;;;;;14.80;69.50;;;;;;5073977;28;19908;-84
2021/05/21 09:24:03;;;;;;;;;;;14.80;68.40;;;;;;5075197;28;19914;-85
2021/05/21 09:26:42;;;;;;;;;;;14.90;68.40;;;;;;5076499;28;19909;-85
2021/05/21 09:29:09;;;;;;;;;;;14.90;69.50;;;;;;5080024;28;19912;-85
2021/05/21 09:31:41;;;;;;;;;;;15.00;69.40;;;;;;5081830;28;19916;-83
2021/05/21 09:34:06;;;;;;;;;;;15.00;69.70;;;;;;5080291;28;20318;-84
2021/05/21 09:36:33;;;;;;;;;;;15.10;69.70;;;;;;5080167;28;19966;-85
2021/05/21 09:38:59;;;;;;;;;;;15.10;68.40;;;;;;5080009;28;19999;-85
2021/05/21 09:41:25;;;;;;;;;;;15.20;64.60;;;;;;5080212;28;19924;-85
2021/05/21 09:43:52;;;;;;;;;;;15.30;65.30;;;;;;5079255;28;19999;-85
2021/05/21 09:46:18;;;;;;;;;;;15.40;66.00;;;;;;5081873;28;19948;-83
2021/05/21 09:48:43;;;;;;;;;;;15.30;66.30;;;;;;5081371;28;19974;-83
2021/05/21 09:51:09;;;;;;;;;;;15.30;66.40;;;;;;5081674;28;20349;-85
2021/05/21 09:53:34;;;;;;;;;;;15.30;65.10;;;;;;5081793;28;20284;-85
2021/05/21 09:56:01;;;;;;;;;;;15.30;65.10;;;;;;5080411;28;19912;-84
2021/05/21 09:58:30;;;;;;;;;;;15.30;66.40;;;;;;5080324;28;20029;-86
2021/05/21 10:01:12;;;;;;;;;;;15.30;66.90;;;;;;5079032;28;19916;-84
2021/05/21 10:03:39;;;;;;;;;;;15.20;67.50;;;;;;5074177;28;19915;-84
2021/05/21 10:06:05;;;;;;;;;;;15.00;68.20;;;;;;5077001;28;19908;-85
2021/05/21 10:08:31;;;;;;;;;;;15.00;69.20;;;;;;5080284;28;19914;-85
2021/05/21 10:10:57;;;;;;;;;;;15.00;69.90;;;;;;5074427;28;19920;-84
2021/05/21 10:13:22;;;;;;;;;;;15.10;67.10;;;;;;5073373;28;19908;-85
2021/05/21 10:15:51;;;;;;;;;;;15.20;68.40;;;;;;5073903;28;19959;-85
2021/05/21 10:18:17;;;;;;;;;;;15.30;68.00;;;;;;5084949;28;19915;-83
2021/05/21 10:20:43;;;;;;;;;;;15.40;67.70;;;;;;5095826;28;19908;-85
2021/05/21 10:23:11;;;;;;;;;;;15.40;68.10;;;;;;5097192;28;19919;-84
2021/05/21 10:25:37;;;;;;;;;;;15.50;69.00;;;;;;5096697;28;19912;-83
2021/05/21 10:28:04;;;;;;;;;;;15.50;67.30;;;;;;5093884;28;20334;-85
2021/05/21 10:30:33;;;;;;;;;;;15.40;66.60;;;;;;5076400;28;19908;-85
2021/05/21 10:33:15;;;;;;;;;;;15.40;67.30;;;;;;5080400;28;19908;-83
2021/05/21 10:35:41;;;;;;;;;;;15.40;65.10;;;;;;5082474;28;19969;-84
2021/05/21 10:38:25;;;;;;;;;;;15.50;64.20;;;;;;5080610;28;19912;-85
2021/05/21 10:41:23;;;;;;;;;;;15.60;62.50;;;;;;5082129;28;19954;-85
2021/05/21 10:43:52;;;;;;;;;;;15.60;62.10;;;;;;5065569;28;19919;-85
2021/05/21 10:46:18;;;;;;;;;;;15.60;62.30;;;;;;5083719;28;19931;-86
2021/05/21 10:49:00;;;;;;;;;;;15.70;63.30;;;;;;5094536;28;19954;-84
2021/05/21 10:51:27;;;;;;;;;;;15.70;61.80;;;;;;5094289;28;19920;-84
2021/05/21 10:54:11;;;;;;;;;;;15.70;61.80;;;;;;5089396;28;19915;-84
2021/05/21 10:56:44;;;;;;;;;;;15.70;62.80;;;;;;5083775;28;19928;-84
2021/05/21 10:59:09;;;;;;;;;;;15.80;61.30;;;;;;5085883;28;19964;-83
2021/05/21 11:01:45;;;;;;;;;;;15.80;61.80;;;;;;5089069;28;19914;-85
2021/05/21 11:04:12;;;;;;;;;;;15.90;61.90;;;;;;5089058;28;19909;-84
2021/05/21 11:06:44;;;;;;;;;;;15.80;62.20;;;;;;5087222;28;19927;-85
2021/05/21 11:09:13;;;;;;;;;;;15.80;61.50;;;;;;5085762;28;19915;-84
2021/05/21 11:11:53;;;;;;;;;;;15.80;62.80;;;;;;5081190;28;19935;-85
2021/05/21 11:14:38;;;;;;;;;;;15.80;63.20;;;;;;5079797;28;19908;-85
2021/05/21 11:17:08;;;;;;;;;;;15.90;63.00;;;;;;5081205;28;20015;-84
2021/05/21 11:19:34;;;;;;;;;;;16.00;62.70;;;;;;5079055;28;19912;-84
2021/05/21 11:22:06;;;;;;;;;;;15.90;60.00;;;;;;5079382;28;19934;-84
2021/05/21 11:24:37;;;;;;;;;;;15.90;60.50;;;;;;5078130;28;19978;-85
2021/05/21 11:27:05;;;;;;;;;;;16.00;60.70;;;;;;5072167;28;20294;-85
2021/05/21 11:29:30;;;;;;;;;;;16.10;59.60;;;;;;5071767;28;19916;-85
2021/05/21 11:31:56;;;;;;;;;;;16.10;58.80;;;;;;5071569;28;19912;-85
2021/05/21 11:34:22;;;;;;;;;;;16.10;59.30;;;;;;5072028;28;19965;-86
2021/05/21 11:36:52;;;;;;;;;;;16.10;57.50;;;;;;5071534;28;20001;-85
2021/05/21 11:39:18;;;;;;;;;;;16.10;56.90;;;;;;5071122;28;19908;-85
2021/05/21 11:41:50;;;;;;;;;;;16.10;56.70;;;;;;5079898;28;20339;-84
2021/05/21 11:44:25;;;;;;;;;;;16.20;55.50;;;;;;5065913;28;19916;-83
2021/05/21 11:46:57;;;;;;;;;;;16.10;56.20;;;;;;5079119;28;19944;-85
2021/05/21 11:49:24;;;;;;;;;;;16.00;55.10;;;;;;5078409;28;19995;-83
2021/05/21 11:52:18;;;;;;;;;;;16.00;54.40;;;;;;5076791;28;19913;-85
2021/05/21 11:54:44;;;;;;;;;;;16.10;56.40;;;;;;5075879;28;19944;-84
2021/05/21 11:57:16;;;;;;;;;;;16.20;56.90;;;;;;5078416;28;20289;-85
2021/05/21 11:59:41;;;;;;;;;;;16.20;57.40;;;;;;5077925;28;20297;-85
2021/05/21 12:02:08;;;;;;;;;;;16.20;56.90;;;;;;5077964;28;20013;-83
2021/05/21 12:04:35;;;;;;;;;;;16.20;56.40;;;;;;5078917;28;19908;-83
2021/05/21 12:07:01;;;;;;;;;;;16.10;56.90;;;;;;5080492;28;19936;-84
2021/05/21 12:09:26;;;;;;;;;;;16.10;56.90;;;;;;5081002;28;19919;-84
2021/05/21 12:11:53;;;;;;;;;;;16.10;56.40;;;;;;5082325;28;19928;-83
2021/05/21 12:14:19;;;;;;;;;;;16.10;56.40;;;;;;5083991;28;19909;-85
2021/05/21 12:16:48;;;;;;;;;;;16.10;57.60;;;;;;5081708;28;20015;-84
2021/05/21 12:19:13;;;;;;;;;;;16.10;58.40;;;;;;5081931;28;19919;-84
2021/05/21 12:21:41;;;;;;;;;;;16.20;58.60;;;;;;5083038;28;19908;-83
2021/05/21 12:24:07;;;;;;;;;;;16.20;58.30;;;;;;5082287;28;19920;-84
2021/05/21 12:26:34;;;;;;;;;;;16.20;56.90;;;;;;5081721;28;20355;-86
2021/05/21 12:29:00;;;;;;;;;;;16.30;56.60;;;;;;5080187;28;19908;-85
2021/05/21 12:31:28;;;;;;;;;;;16.50;57.40;;;;;;5080273;28;20387;-85
2021/05/21 12:33:54;;;;;;;;;;;16.60;55.40;;;;;;5080977;28;20331;-83
2021/05/21 12:36:22;;;;;;;;;;;16.60;56.00;;;;;;5079152;28;20339;-84
2021/05/21 12:38:48;;;;;;;;;;;16.70;55.10;;;;;;5080146;28;19908;-84
2021/05/21 12:41:14;;;;;;;;;;;16.70;55.50;;;;;;5081713;28;19917;-85
2021/05/21 12:43:40;;;;;;;;;;;16.80;56.10;;;;;;5080239;28;19931;-83
2021/05/21 12:46:07;;;;;;;;;;;17.00;56.30;;;;;;5080462;28;19912;-83
2021/05/21 12:48:33;;;;;;;;;;;17.00;55.50;;;;;;5079675;28;20277;-84
2021/05/21 12:51:09;;;;;;;;;;;16.70;53.80;;;;;;5080159;28;19909;-84
2021/05/21 12:53:34;;;;;;;;;;;16.60;53.60;;;;;;5080152;28;19908;-84
2021/05/21 12:56:00;;;;;;;;;;;16.60;54.30;;;;;;5079640;28;19920;-83
2021/05/21 12:58:25;;;;;;;;;;;16.70;54.20;;;;;;5079432;28;19912;-85
2021/05/21 13:00:51;;;;;;;;;;;16.80;54.40;;;;;;5081634;28;19908;-86
2021/05/21 13:03:16;;;;;;;;;;;16.90;54.60;;;;;;5081544;28;19915;-85
2021/05/21 13:05:42;;;;;;;;;;;17.00;55.80;;;;;;5080308;28;19908;-83
2021/05/21 13:08:07;;;;;;;;;;;17.00;55.60;;;;;;5080418;28;19908;-85
2021/05/21 13:10:37;;;;;;;;;;;17.00;54.70;;;;;;5079736;28;19910;-85
2021/05/21 13:13:02;;;;;;;;;;;16.90;53.20;;;;;;5082407;28;19912;-84
2021/05/21 13:15:29;;;;;;;;;;;16.90;53.90;;;;;;5083015;28;19976;-85
2021/05/21 13:17:56;;;;;;;;;;;16.80;54.10;;;;;;5080504;28;19919;-85
2021/05/21 13:20:25;;;;;;;;;;;16.70;54.10;;;;;;5080151;28;20384;-85
2021/05/21 13:22:51;;;;;;;;;;;16.70;54.40;;;;;;5080648;28;19909;-84
2021/05/21 13:25:18;;;;;;;;;;;16.70;55.40;;;;;;5080018;28;20365;-84
2021/05/21 13:27:47;;;;;;;;;;;16.80;55.70;;;;;;5080046;28;20377;-85
2021/05/21 13:30:13;;;;;;;;;;;16.90;55.70;;;;;;5081441;28;19909;-84
2021/05/21 13:32:40;;;;;;;;;;;16.90;53.90;;;;;;5079817;28;19915;-84
2021/05/21 13:35:05;;;;;;;;;;;17.10;53.90;;;;;;5081026;28;19912;-83
2021/05/21 13:37:31;;;;;;;;;;;17.10;53.00;;;;;;5080455;28;19913;-84
2021/05/21 13:39:56;;;;;;;;;;;17.10;52.80;;;;;;5081404;28;19917;-83
2021/05/21 13:42:22;;;;;;;;;;;17.10;52.90;;;;;;5080656;28;19908;-85
2021/05/21 13:44:48;;;;;;;;;;;17.10;53.50;;;;;;5080749;28;20391;-85
2021/05/21 13:47:13;;;;;;;;;;;17.10;53.20;;;;;;5079925;28;19916;-85
2021/05/21 13:49:39;;;;;;;;;;;17.00;53.90;;;;;;5081209;28;19951;-85
2021/05/21 13:52:05;;;;;;;;;;;17.00;54.50;;;;;;5080447;28;19912;-85
2021/05/21 13:54:31;;;;;;;;;;;17.10;54.20;;;;;;5080345;28;19915;-84
2021/05/21 13:56:56;;;;;;;;;;;17.30;53.50;;;;;;5080565;28;19916;-85
2021/05/21 13:59:22;;;;;;;;;;;17.30;52.80;;;;;;5080625;28;19909;-85
2021/05/21 14:01:48;;;;;;;;;;;17.50;52.70;;;;;;5083115;28;19908;-85
2021/05/21 14:04:13;;;;;;;;;;;17.50;51.80;;;;;;5082368;28;19915;-85
2021/05/21 14:06:39;;;;;;;;;;;17.60;51.10;;;;;;5081774;28;20373;-84
2021/05/21 14:09:05;;;;;;;;;;;17.60;51.50;;;;;;5077777;28;19912;-84
2021/05/21 14:11:33;;;;;;;;;;;17.70;51.50;;;;;;5078736;28;19964;-84
2021/05/21 14:13:59;;;;;;;;;;;17.70;51.90;;;;;;5076391;28;19909;-84